sensor_id;sensor_type;location;lat;lon;timestamp;temperature;humidity
47921;DHT22;33686;48.770;9.186;2023-12-20T06:16:21;5.50;99.90
47921;DHT22;33686;48.770;9.186;2023-12-20T06:18:46;5.50;99.90
47921;DHT22;33686;48.770;9.186;2023-12-20T06:21:12;5.50;99.90
47921;DHT22;33686;48.770;9.186;2023-12-20T06:23:38;5.50;99.90
47921;DHT22;33686;48.770;9.186;2023-12-20T06:26:04;5.50;99.90
47921;DHT22;33686;48.770;9.186;2023-12-20T06:28:29;5.50;99.90
47921;DHT22;33686;48.770;9.186;2023-12-20T06:30:55;5.50;99.90
47921;DHT22;33686;48.770;9.186;2023-12-20T06:33:22;5.50;99.90
47921;DHT22;33686;48.770;9.186;2023-12-20T06:35:48;5.50;99.90
47921;DHT22;33686;48.770;9.186;2023-12-20T06:38:13;5.50;99.90
47921;DHT22;33686;48.770;9.186;2023-12-20T06:40:39;5.50;99.90
47921;DHT22;33686;48.770;9.186;2023-12-20T06:43:04;5.50;99.90
47921;DHT22;33686;48.770;9.186;2023-12-20T06:45:32;5.50;99.90
47921;DHT22;33686;48.770;9.186;2023-12-20T06:47:57;5.50;99.90
47921;DHT22;33686;48.770;9.186;2023-12-20T06:50:23;5.50;99.90
47921;DHT22;33686;48.770;9.186;2023-12-20T06:52:49;5.50;99.90
47921;DHT22;33686;48.770;9.186;2023-12-20T06:55:15;5.50;99.90
47921;DHT22;33686;48.770;9.186;2023-12-20T06:57:40;5.50;99.90
47921;DHT22;33686;48.770;9.186;2023-12-20T07:00:06;5.50;99.90
47921;DHT22;33686;48.770;9.186;2023-12-20T07:02:32;5.60;99.90
47921;DHT22;33686;48.770;9.186;2023-12-20T07:04:57;5.60;99.90
47921;DHT22;33686;48.770;9.186;2023-12-20T07:07:23;5.60;99.90
47921;DHT22;33686;48.770;9.186;2023-12-20T07:09:49;5.70;99.90
47921;DHT22;33686;48.770;9.186;2023-12-20T07:12:15;5.70;99.90
47921;DHT22;33686;48.770;9.186;2023-12-20T07:14:40;5.70;99.90
47921;DHT22;33686;48.770;9.186;2023-12-20T07:17:06;5.60;99.90
47921;DHT22;33686;48.770;9.186;2023-12-20T07:19:39;5.70;99.90
47921;DHT22;33686;48.770;9.186;2023-12-20T07:22:05;5.70;99.90
47921;DHT22;33686;48.770;9.186;2023-12-20T07:24:31;5.70;99.90
47921;DHT22;33686;48.770;9.186;2023-12-20T07:26:56;5.70;99.90
47921;DHT22;33686;48.770;9.186;2023-12-20T07:29:22;5.70;99.90
47921;DHT22;33686;48.770;9.186;2023-12-20T07:31:47;5.70;99.90
47921;DHT22;33686;48.770;9.186;2023-12-20T07:34:13;5.80;99.90
47921;DHT22;33686;48.770;9.186;2023-12-20T07:36:38;5.70;99.90
47921;DHT22;33686;48.770;9.186;2023-12-20T07:39:04;5.80;99.90
47921;DHT22;33686;48.770;9.186;2023-12-20T07:41:30;5.80;99.90
47921;DHT22;33686;48.770;9.186;2023-12-20T07:43:55;5.80;99.90
47921;DHT22;33686;48.770;9.186;2023-12-20T07:46:22;5.80;99.90
47921;DHT22;33686;48.770;9.186;2023-12-20T07:48:48;5.80;99.90
47921;DHT22;33686;48.770;9.186;2023-12-20T07:51:14;5.80;99.90
47921;DHT22;33686;48.770;9.186;2023-12-20T07:53:39;5.80;99.90
47921;DHT22;33686;48.770;9.186;2023-12-20T07:56:26;5.80;99.90
47921;DHT22;33686;48.770;9.186;2023-12-20T07:58:51;5.80;99.90
47921;DHT22;33686;48.770;9.186;2023-12-20T08:01:16;5.70;99.90
47921;DHT22;33686;48.770;9.186;2023-12-20T08:03:43;5.70;99.90
47921;DHT22;33686;48.770;9.186;2023-12-20T08:06:09;5.70;99.90
47921;DHT22;33686;48.770;9.186;2023-12-20T08:08:34;5.70;99.90
47921;DHT22;33686;48.770;9.186;2023-12-20T08:11:00;5.70;99.90
47921;DHT22;33686;48.770;9.186;2023-12-20T08:13:26;5.80;99.90
47921;DHT22;33686;48.770;9.186;2023-12-20T08:15:52;5.70;99.90
47921;DHT22;33686;48.770;9.186;2023-12-20T08:18:18;5.70;99.90
47921;DHT22;33686;48.770;9.186;2023-12-20T08:20:43;5.70;99.90
47921;DHT22;33686;48.770;9.186;2023-12-20T08:23:09;5.70;99.90
47921;DHT22;33686;48.770;9.186;2023-12-20T08:25:34;5.70;99.90
47921;DHT22;33686;48.770;9.186;2023-12-20T08:28:01;5.70;99.90
47921;DHT22;33686;48.770;9.186;2023-12-20T08:30:27;5.70;99.90
47921;DHT22;33686;48.770;9.186;2023-12-20T08:32:53;5.70;99.90
47921;DHT22;33686;48.770;9.186;2023-12-20T08:35:18;5.70;99.90
47921;DHT22;33686;48.770;9.186;2023-12-20T08:37:45;5.70;99.90
47921;DHT22;33686;48.770;9.186;2023-12-20T08:40:10;5.70;99.90
47921;DHT22;33686;48.770;9.186;2023-12-20T08:42:36;5.80;99.90
47921;DHT22;33686;48.770;9.186;2023-12-20T08:45:01;5.80;99.90
47921;DHT22;33686;48.770;9.186;2023-12-20T08:47:29;5.80;99.90
47921;DHT22;33686;48.770;9.186;2023-12-20T08:49:55;5.90;99.90
47921;DHT22;33686;48.770;9.186;2023-12-20T08:52:22;6.00;99.90
47921;DHT22;33686;48.770;9.186;2023-12-20T08:54:48;6.10;99.90
47921;DHT22;33686;48.770;9.186;2023-12-20T08:57:14;6.00;99.90
47921;DHT22;33686;48.770;9.186;2023-12-20T08:59:39;6.00;99.90
47921;DHT22;33686;48.770;9.186;2023-12-20T09:02:05;6.20;99.90
47921;DHT22;33686;48.770;9.186;2023-12-20T09:04:30;6.40;99.90
47921;DHT22;33686;48.770;9.186;2023-12-20T09:06:56;6.40;99.90
47921;DHT22;33686;48.770;9.186;2023-12-20T09:09:21;6.40;99.90
47921;DHT22;33686;48.770;9.186;2023-12-20T09:11:47;6.60;99.90
47921;DHT22;33686;48.770;9.186;2023-12-20T09:14:15;6.40;99.90
47921;DHT22;33686;48.770;9.186;2023-12-20T09:16:41;6.30;99.90
47921;DHT22;33686;48.770;9.186;2023-12-20T09:19:06;6.30;99.90
47921;DHT22;33686;48.770;9.186;2023-12-20T09:21:32;6.20;99.90
47921;DHT22;33686;48.770;9.186;2023-12-20T09:23:57;6.20;99.90
47921;DHT22;33686;48.770;9.186;2023-12-20T09:26:24;6.20;99.90
47921;DHT22;33686;48.770;9.186;2023-12-20T09:28:49;6.20;99.90
47921;DHT22;33686;48.770;9.186;2023-12-20T09:31:15;6.10;99.90
47921;DHT22;33686;48.770;9.186;2023-12-20T09:33:40;6.10;99.90
47921;DHT22;33686;48.770;9.186;2023-12-20T09:36:06;6.10;99.90
47921;DHT22;33686;48.770;9.186;2023-12-20T09:38:32;6.10;99.90
47921;DHT22;33686;48.770;9.186;2023-12-20T09:40:57;6.10;99.90
47921;DHT22;33686;48.770;9.186;2023-12-20T09:43:23;6.00;99.90
47921;DHT22;33686;48.770;9.186;2023-12-20T09:45:49;6.00;99.90
47921;DHT22;33686;48.770;9.186;2023-12-20T09:48:18;6.00;99.90
47921;DHT22;33686;48.770;9.186;2023-12-20T09:50:44;6.00;99.90
47921;DHT22;33686;48.770;9.186;2023-12-20T09:53:10;6.10;99.90
47921;DHT22;33686;48.770;9.186;2023-12-20T09:55:37;6.10;99.90
47921;DHT22;33686;48.770;9.186;2023-12-20T09:58:03;6.00;99.90
47921;DHT22;33686;48.770;9.186;2023-12-20T10:00:29;6.00;99.90
47921;DHT22;33686;48.770;9.186;2023-12-20T10:02:58;6.10;99.90
47921;DHT22;33686;48.770;9.186;2023-12-20T10:05:28;6.10;99.90
47921;DHT22;33686;48.770;9.186;2023-12-20T10:07:53;6.10;99.90
47921;DHT22;33686;48.770;9.186;2023-12-20T10:10:19;6.10;99.90
47921;DHT22;33686;48.770;9.186;2023-12-20T10:13:01;6.10;99.90
47921;DHT22;33686;48.770;9.186;2023-12-20T10:15:27;6.10;99.90
47921;DHT22;33686;48.770;9.186;2023-12-20T10:17:52;6.10;99.90
47921;DHT22;33686;48.770;9.186;2023-12-20T10:20:18;6.20;99.90
47921;DHT22;33686;48.770;9.186;2023-12-20T10:22:43;6.20;99.90
47921;DHT22;33686;48.770;9.186;2023-12-20T10:25:09;6.30;99.90
47921;DHT22;33686;48.770;9.186;2023-12-20T10:27:34;6.40;99.90
47921;DHT22;33686;48.770;9.186;2023-12-20T10:30:00;6.40;99.90
47921;DHT22;33686;48.770;9.186;2023-12-20T10:32:26;6.50;99.90
47921;DHT22;33686;48.770;9.186;2023-12-20T10:34:52;6.40;99.90
47921;DHT22;33686;48.770;9.186;2023-12-20T10:37:18;6.40;99.90
47921;DHT22;33686;48.770;9.186;2023-12-20T10:39:44;6.30;99.90
47921;DHT22;33686;48.770;9.186;2023-12-20T10:42:13;6.30;99.90
47921;DHT22;33686;48.770;9.186;2023-12-20T10:44:38;6.40;99.90
47921;DHT22;33686;48.770;9.186;2023-12-20T10:47:04;6.40;99.90
47921;DHT22;33686;48.770;9.186;2023-12-20T10:49:30;6.40;99.90
47921;DHT22;33686;48.770;9.186;2023-12-20T10:51:57;6.40;99.90
47921;DHT22;33686;48.770;9.186;2023-12-20T10:54:24;6.40;99.90
47921;DHT22;33686;48.770;9.186;2023-12-20T10:56:50;6.30;99.90
47921;DHT22;33686;48.770;9.186;2023-12-20T10:59:18;6.30;99.90
47921;DHT22;33686;48.770;9.186;2023-12-20T11:01:44;6.30;99.90
47921;DHT22;33686;48.770;9.186;2023-12-20T11:04:10;6.30;99.90
47921;DHT22;33686;48.770;9.186;2023-12-20T11:09:24;6.40;99.90
47921;DHT22;33686;48.770;9.186;2023-12-20T11:12:01;6.40;99.90
47921;DHT22;33686;48.770;9.186;2023-12-20T11:17:06;6.50;99.90
47921;DHT22;33686;48.770;9.186;2023-12-20T11:19:32;6.50;99.90
47921;DHT22;33686;48.770;9.186;2023-12-20T11:21:58;6.40;99.90
47921;DHT22;33686;48.770;9.186;2023-12-20T11:24:23;6.50;99.90
47921;DHT22;33686;48.770;9.186;2023-12-20T11:26:50;6.50;99.90
47921;DHT22;33686;48.770;9.186;2023-12-20T11:29:33;6.50;99.90
47921;DHT22;33686;48.770;9.186;2023-12-20T11:31:59;6.50;99.90
47921;DHT22;33686;48.770;9.186;2023-12-20T11:34:29;6.40;99.90
47921;DHT22;33686;48.770;9.186;2023-12-20T11:36:57;6.40;99.90
47921;DHT22;33686;48.770;9.186;2023-12-20T11:39:23;6.40;99.90
47921;DHT22;33686;48.770;9.186;2023-12-20T11:41:48;6.40;99.90
47921;DHT22;33686;48.770;9.186;2023-12-20T11:44:14;6.40;99.90
47921;DHT22;33686;48.770;9.186;2023-12-20T11:46:42;6.40;99.90
47921;DHT22;33686;48.770;9.186;2023-12-20T11:49:09;6.30;99.90
47921;DHT22;33686;48.770;9.186;2023-12-20T11:51:35;6.30;99.90
47921;DHT22;33686;48.770;9.186;2023-12-20T11:54:00;6.20;99.90
47921;DHT22;33686;48.770;9.186;2023-12-20T11:56:26;6.10;99.90
47921;DHT22;33686;48.770;9.186;2023-12-20T11:58:51;6.10;99.90
47921;DHT22;33686;48.770;9.186;2023-12-20T12:01:19;6.10;99.90
47921;DHT22;33686;48.770;9.186;2023-12-20T12:03:44;6.20;99.90
47921;DHT22;33686;48.770;9.186;2023-12-20T12:06:10;6.10;99.90
47921;DHT22;33686;48.770;9.186;2023-12-20T12:08:36;6.20;99.90
47921;DHT22;33686;48.770;9.186;2023-12-20T12:11:02;6.10;99.90
47921;DHT22;33686;48.770;9.186;2023-12-20T12:13:27;6.20;99.90
47921;DHT22;33686;48.770;9.186;2023-12-20T12:15:53;6.20;99.90
47921;DHT22;33686;48.770;9.186;2023-12-20T12:18:19;6.30;99.90
47921;DHT22;33686;48.770;9.186;2023-12-20T12:20:44;6.40;99.90
47921;DHT22;33686;48.770;9.186;2023-12-20T12:23:11;6.40;99.90
47921;DHT22;33686;48.770;9.186;2023-12-20T12:25:36;6.50;99.90
47921;DHT22;33686;48.770;9.186;2023-12-20T12:28:02;6.50;99.90
47921;DHT22;33686;48.770;9.186;2023-12-20T12:30:28;6.50;99.90
47921;DHT22;33686;48.770;9.186;2023-12-20T12:32:55;6.60;99.90
47921;DHT22;33686;48.770;9.186;2023-12-20T12:35:21;6.60;99.90
47921;DHT22;33686;48.770;9.186;2023-12-20T12:37:46;6.60;99.90
47921;DHT22;33686;48.770;9.186;2023-12-20T12:40:12;6.70;99.90
47921;DHT22;33686;48.770;9.186;2023-12-20T12:42:39;6.50;99.90
47921;DHT22;33686;48.770;9.186;2023-12-20T12:45:05;6.50;99.90
47921;DHT22;33686;48.770;9.186;2023-12-20T12:47:30;6.40;99.90
47921;DHT22;33686;48.770;9.186;2023-12-20T12:49:56;6.50;99.90
47921;DHT22;33686;48.770;9.186;2023-12-20T12:52:22;6.50;99.90
47921;DHT22;33686;48.770;9.186;2023-12-20T12:54:48;6.50;99.90
47921;DHT22;33686;48.770;9.186;2023-12-20T12:57:14;6.60;99.90
47921;DHT22;33686;48.770;9.186;2023-12-20T12:59:40;6.60;99.90
47921;DHT22;33686;48.770;9.186;2023-12-20T13:02:06;6.60;99.90
47921;DHT22;33686;48.770;9.186;2023-12-20T13:04:32;6.60;99.90
47921;DHT22;33686;48.770;9.186;2023-12-20T13:06:57;6.60;99.90
47921;DHT22;33686;48.770;9.186;2023-12-20T13:09:23;6.60;99.90
47921;DHT22;33686;48.770;9.186;2023-12-20T13:11:48;6.60;99.90
47921;DHT22;33686;48.770;9.186;2023-12-20T13:14:14;6.60;99.90
47921;DHT22;33686;48.770;9.186;2023-12-20T13:16:41;6.70;99.90
47921;DHT22;33686;48.770;9.186;2023-12-20T13:19:07;6.70;99.90
47921;DHT22;33686;48.770;9.186;2023-12-20T13:21:32;6.70;99.90
47921;DHT22;33686;48.770;9.186;2023-12-20T13:23:58;6.70;99.90
47921;DHT22;33686;48.770;9.186;2023-12-20T13:26:23;6.70;99.90
47921;DHT22;33686;48.770;9.186;2023-12-20T13:28:49;6.70;99.90
47921;DHT22;33686;48.770;9.186;2023-12-20T13:31:14;6.80;99.90
47921;DHT22;33686;48.770;9.186;2023-12-20T13:33:40;6.80;99.90
47921;DHT22;33686;48.770;9.186;2023-12-20T13:36:06;7.00;99.90
47921;DHT22;33686;48.770;9.186;2023-12-20T13:38:31;7.00;99.90
47921;DHT22;33686;48.770;9.186;2023-12-20T13:40:57;6.80;99.90
47921;DHT22;33686;48.770;9.186;2023-12-20T13:43:24;6.80;99.90
47921;DHT22;33686;48.770;9.186;2023-12-20T13:45:50;6.70;99.90
47921;DHT22;33686;48.770;9.186;2023-12-20T13:48:16;6.70;99.90
47921;DHT22;33686;48.770;9.186;2023-12-20T13:50:41;6.60;99.90
47921;DHT22;33686;48.770;9.186;2023-12-20T13:53:07;6.60;99.90
47921;DHT22;33686;48.770;9.186;2023-12-20T13:55:32;6.60;99.90
47921;DHT22;33686;48.770;9.186;2023-12-20T13:57:58;6.50;99.90
47921;DHT22;33686;48.770;9.186;2023-12-20T14:00:23;6.50;99.90
47921;DHT22;33686;48.770;9.186;2023-12-20T14:02:49;6.50;99.90
47921;DHT22;33686;48.770;9.186;2023-12-20T14:05:15;6.50;99.90
47921;DHT22;33686;48.770;9.186;2023-12-20T14:07:43;6.50;99.90
47921;DHT22;33686;48.770;9.186;2023-12-20T14:10:13;6.50;99.90
47921;DHT22;33686;48.770;9.186;2023-12-20T14:12:39;6.40;99.90
47921;DHT22;33686;48.770;9.186;2023-12-20T14:15:05;6.40;99.90
47921;DHT22;33686;48.770;9.186;2023-12-20T14:17:34;6.40;99.90
47921;DHT22;33686;48.770;9.186;2023-12-20T14:20:00;6.40;99.90
47921;DHT22;33686;48.770;9.186;2023-12-20T14:22:26;6.40;99.90
47921;DHT22;33686;48.770;9.186;2023-12-20T14:24:51;6.40;99.90
47921;DHT22;33686;48.770;9.186;2023-12-20T14:27:17;6.30;99.90
47921;DHT22;33686;48.770;9.186;2023-12-20T14:29:43;6.30;99.90
47921;DHT22;33686;48.770;9.186;2023-12-20T14:32:08;6.30;99.90
47921;DHT22;33686;48.770;9.186;2023-12-20T14:34:34;6.30;99.90
47921;DHT22;33686;48.770;9.186;2023-12-20T14:36:59;6.30;99.90
47921;DHT22;33686;48.770;9.186;2023-12-20T14:39:25;6.20;99.90
47921;DHT22;33686;48.770;9.186;2023-12-20T14:41:50;6.30;99.90
47921;DHT22;33686;48.770;9.186;2023-12-20T14:44:16;6.20;99.90
47921;DHT22;33686;48.770;9.186;2023-12-20T14:46:43;6.10;99.90
47921;DHT22;33686;48.770;9.186;2023-12-20T14:49:08;6.00;99.90
47921;DHT22;33686;48.770;9.186;2023-12-20T14:51:34;6.00;99.90
47921;DHT22;33686;48.770;9.186;2023-12-20T14:54:02;5.90;99.90
47921;DHT22;33686;48.770;9.186;2023-12-20T14:56:27;5.90;99.90
47921;DHT22;33686;48.770;9.186;2023-12-20T14:58:53;5.90;99.90
47921;DHT22;33686;48.770;9.186;2023-12-20T15:01:19;5.80;99.90
47921;DHT22;33686;48.770;9.186;2023-12-20T15:03:47;5.90;99.90
47921;DHT22;33686;48.770;9.186;2023-12-20T15:06:13;5.90;99.90
47921;DHT22;33686;48.770;9.186;2023-12-20T15:08:39;5.90;99.90
47921;DHT22;33686;48.770;9.186;2023-12-20T15:11:04;5.90;99.90
47921;DHT22;33686;48.770;9.186;2023-12-20T15:13:31;5.80;99.90
47921;DHT22;33686;48.770;9.186;2023-12-20T15:15:57;5.80;99.90
47921;DHT22;33686;48.770;9.186;2023-12-20T15:18:22;5.80;99.90
47921;DHT22;33686;48.770;9.186;2023-12-20T15:20:48;5.80;99.90
47921;DHT22;33686;48.770;9.186;2023-12-20T15:23:13;5.80;99.90
47921;DHT22;33686;48.770;9.186;2023-12-20T15:25:39;5.70;99.90
47921;DHT22;33686;48.770;9.186;2023-12-20T15:28:05;5.70;99.90
47921;DHT22;33686;48.770;9.186;2023-12-20T15:30:31;5.70;99.90
47921;DHT22;33686;48.770;9.186;2023-12-20T15:32:56;5.70;99.90
47921;DHT22;33686;48.770;9.186;2023-12-20T15:35:22;5.70;99.90
47921;DHT22;33686;48.770;9.186;2023-12-20T15:37:48;5.60;99.90
47921;DHT22;33686;48.770;9.186;2023-12-20T15:40:14;5.60;99.90
47921;DHT22;33686;48.770;9.186;2023-12-20T15:42:40;5.60;99.90
47921;DHT22;33686;48.770;9.186;2023-12-20T15:45:07;5.60;99.90
47921;DHT22;33686;48.770;9.186;2023-12-20T15:47:35;5.50;99.90
47921;DHT22;33686;48.770;9.186;2023-12-20T15:50:02;5.50;99.90
47921;DHT22;33686;48.770;9.186;2023-12-20T15:52:28;5.60;99.90
47921;DHT22;33686;48.770;9.186;2023-12-20T15:54:54;5.50;99.90
47921;DHT22;33686;48.770;9.186;2023-12-20T15:57:20;5.50;99.90
47921;DHT22;33686;48.770;9.186;2023-12-20T15:59:45;5.50;99.90
47921;DHT22;33686;48.770;9.186;2023-12-20T16:02:12;5.50;99.90
47921;DHT22;33686;48.770;9.186;2023-12-20T16:04:37;5.40;99.90
47921;DHT22;33686;48.770;9.186;2023-12-20T16:07:03;5.50;99.90
47921;DHT22;33686;48.770;9.186;2023-12-20T16:09:29;5.40;99.90
47921;DHT22;33686;48.770;9.186;2023-12-20T16:11:54;5.40;99.90
47921;DHT22;33686;48.770;9.186;2023-12-20T16:14:20;5.40;99.90
47921;DHT22;33686;48.770;9.186;2023-12-20T16:16:49;5.40;99.90
47921;DHT22;33686;48.770;9.186;2023-12-20T16:19:15;5.40;99.90
47921;DHT22;33686;48.770;9.186;2023-12-20T16:21:40;5.40;99.90
47921;DHT22;33686;48.770;9.186;2023-12-20T16:24:06;5.40;99.90
47921;DHT22;33686;48.770;9.186;2023-12-20T16:26:32;5.40;99.90
47921;DHT22;33686;48.770;9.186;2023-12-20T16:28:58;5.40;99.90
47921;DHT22;33686;48.770;9.186;2023-12-20T16:31:23;5.30;99.90
47921;DHT22;33686;48.770;9.186;2023-12-20T16:33:49;5.40;99.90
47921;DHT22;33686;48.770;9.186;2023-12-20T16:36:15;5.30;99.90
47921;DHT22;33686;48.770;9.186;2023-12-20T16:38:40;5.40;99.90
47921;DHT22;33686;48.770;9.186;2023-12-20T16:41:06;5.30;99.90
47921;DHT22;33686;48.770;9.186;2023-12-20T16:43:32;5.30;99.90
47921;DHT22;33686;48.770;9.186;2023-12-20T16:45:57;5.30;99.90
47921;DHT22;33686;48.770;9.186;2023-12-20T16:48:23;5.30;99.90
47921;DHT22;33686;48.770;9.186;2023-12-20T16:50:49;5.30;99.90
47921;DHT22;33686;48.770;9.186;2023-12-20T16:53:16;5.20;99.90
47921;DHT22;33686;48.770;9.186;2023-12-20T16:55:42;5.20;99.90
47921;DHT22;33686;48.770;9.186;2023-12-20T16:58:13;5.20;99.90
47921;DHT22;33686;48.770;9.186;2023-12-20T17:00:39;5.20;99.90
47921;DHT22;33686;48.770;9.186;2023-12-20T17:03:07;5.20;99.90
47921;DHT22;33686;48.770;9.186;2023-12-20T17:05:33;5.20;99.90
47921;DHT22;33686;48.770;9.186;2023-12-20T17:07:58;5.20;99.90
47921;DHT22;33686;48.770;9.186;2023-12-20T17:10:24;5.20;99.90
47921;DHT22;33686;48.770;9.186;2023-12-20T17:12:50;5.20;99.90
47921;DHT22;33686;48.770;9.186;2023-12-20T17:15:16;5.20;99.90
47921;DHT22;33686;48.770;9.186;2023-12-20T17:17:42;5.10;99.90
47921;DHT22;33686;48.770;9.186;2023-12-20T17:20:08;5.10;99.90
47921;DHT22;33686;48.770;9.186;2023-12-20T17:22:33;5.20;99.90
47921;DHT22;33686;48.770;9.186;2023-12-20T17:24:59;5.10;99.90
47921;DHT22;33686;48.770;9.186;2023-12-20T17:27:24;5.10;99.90
47921;DHT22;33686;48.770;9.186;2023-12-20T17:29:50;5.10;99.90
47921;DHT22;33686;48.770;9.186;2023-12-20T17:32:16;5.10;99.90
47921;DHT22;33686;48.770;9.186;2023-12-20T17:34:41;5.10;99.90
47921;DHT22;33686;48.770;9.186;2023-12-20T17:37:07;5.10;99.90
47921;DHT22;33686;48.770;9.186;2023-12-20T17:39:33;5.10;99.90
47921;DHT22;33686;48.770;9.186;2023-12-20T17:41:58;5.10;99.90
47921;DHT22;33686;48.770;9.186;2023-12-20T17:44:24;5.10;99.90
47921;DHT22;33686;48.770;9.186;2023-12-20T17:46:50;5.10;99.90
47921;DHT22;33686;48.770;9.186;2023-12-20T17:49:15;5.00;99.90
47921;DHT22;33686;48.770;9.186;2023-12-20T17:51:44;5.00;99.90
47921;DHT22;33686;48.770;9.186;2023-12-20T17:54:12;5.00;99.90
47921;DHT22;33686;48.770;9.186;2023-12-20T17:56:37;5.00;99.90
47921;DHT22;33686;48.770;9.186;2023-12-20T17:59:03;5.00;99.90
47921;DHT22;33686;48.770;9.186;2023-12-20T18:01:29;5.00;99.90
47921;DHT22;33686;48.770;9.186;2023-12-20T18:03:54;5.10;99.90
47921;DHT22;33686;48.770;9.186;2023-12-20T18:06:20;5.10;99.90
47921;DHT22;33686;48.770;9.186;2023-12-20T18:08:46;5.10;99.90
47921;DHT22;33686;48.770;9.186;2023-12-20T18:11:11;5.10;99.90
47921;DHT22;33686;48.770;9.186;2023-12-20T18:13:37;5.10;99.90
47921;DHT22;33686;48.770;9.186;2023-12-20T18:16:03;5.10;99.90
47921;DHT22;33686;48.770;9.186;2023-12-20T18:18:34;5.00;99.90
47921;DHT22;33686;48.770;9.186;2023-12-20T18:21:00;5.00;99.90
47921;DHT22;33686;48.770;9.186;2023-12-20T18:23:25;5.10;99.90
47921;DHT22;33686;48.770;9.186;2023-12-20T18:25:51;5.10;99.90
47921;DHT22;33686;48.770;9.186;2023-12-20T18:28:19;5.10;99.90
47921;DHT22;33686;48.770;9.186;2023-12-20T18:30:45;5.10;99.90
47921;DHT22;33686;48.770;9.186;2023-12-20T18:33:10;5.10;99.90
47921;DHT22;33686;48.770;9.186;2023-12-20T18:35:36;5.20;99.90
47921;DHT22;33686;48.770;9.186;2023-12-20T18:38:03;5.20;99.90
47921;DHT22;33686;48.770;9.186;2023-12-20T18:40:28;5.10;99.90
47921;DHT22;33686;48.770;9.186;2023-12-20T18:42:54;5.10;99.90
47921;DHT22;33686;48.770;9.186;2023-12-20T18:45:22;5.10;99.90
47921;DHT22;33686;48.770;9.186;2023-12-20T18:47:48;5.10;99.90
47921;DHT22;33686;48.770;9.186;2023-12-20T18:50:13;5.10;99.90
47921;DHT22;33686;48.770;9.186;2023-12-20T18:52:39;5.10;99.90
47921;DHT22;33686;48.770;9.186;2023-12-20T18:55:05;5.10;99.90
47921;DHT22;33686;48.770;9.186;2023-12-20T18:57:31;5.20;99.90
47921;DHT22;33686;48.770;9.186;2023-12-20T18:59:57;5.10;99.90
47921;DHT22;33686;48.770;9.186;2023-12-20T19:02:23;5.10;99.90
47921;DHT22;33686;48.770;9.186;2023-12-20T19:04:49;5.10;99.90
47921;DHT22;33686;48.770;9.186;2023-12-20T19:07:14;5.10;99.90
47921;DHT22;33686;48.770;9.186;2023-12-20T19:09:40;5.20;99.90
47921;DHT22;33686;48.770;9.186;2023-12-20T19:12:06;5.10;99.90
47921;DHT22;33686;48.770;9.186;2023-12-20T19:14:31;5.10;99.90
47921;DHT22;33686;48.770;9.186;2023-12-20T19:16:57;5.20;99.90
47921;DHT22;33686;48.770;9.186;2023-12-20T19:19:26;5.20;99.90
47921;DHT22;33686;48.770;9.186;2023-12-20T19:21:53;5.10;99.90
47921;DHT22;33686;48.770;9.186;2023-12-20T19:24:19;5.20;99.90
47921;DHT22;33686;48.770;9.186;2023-12-20T19:26:44;5.20;99.90
47921;DHT22;33686;48.770;9.186;2023-12-20T19:29:10;5.10;99.90
47921;DHT22;33686;48.770;9.186;2023-12-20T19:31:35;5.20;99.90
47921;DHT22;33686;48.770;9.186;2023-12-20T19:34:01;5.10;99.90
47921;DHT22;33686;48.770;9.186;2023-12-20T19:36:27;5.10;99.90
47921;DHT22;33686;48.770;9.186;2023-12-20T19:38:52;5.10;99.90
47921;DHT22;33686;48.770;9.186;2023-12-20T19:41:18;5.10;99.90
47921;DHT22;33686;48.770;9.186;2023-12-20T19:43:44;5.10;99.90
47921;DHT22;33686;48.770;9.186;2023-12-20T19:46:09;5.10;99.90
47921;DHT22;33686;48.770;9.186;2023-12-20T19:48:36;5.10;99.90
47921;DHT22;33686;48.770;9.186;2023-12-20T19:51:02;5.10;99.90
47921;DHT22;33686;48.770;9.186;2023-12-20T19:53:27;5.10;99.90
47921;DHT22;33686;48.770;9.186;2023-12-20T19:55:53;5.10;99.90
47921;DHT22;33686;48.770;9.186;2023-12-20T19:58:18;5.00;99.90
47921;DHT22;33686;48.770;9.186;2023-12-20T20:00:44;5.00;99.90
47921;DHT22;33686;48.770;9.186;2023-12-20T20:03:10;4.90;99.90
47921;DHT22;33686;48.770;9.186;2023-12-20T20:05:35;4.90;99.90
47921;DHT22;33686;48.770;9.186;2023-12-20T20:08:01;4.90;99.90
47921;DHT22;33686;48.770;9.186;2023-12-20T20:10:27;4.90;99.90
47921;DHT22;33686;48.770;9.186;2023-12-20T20:12:52;4.90;99.90
47921;DHT22;33686;48.770;9.186;2023-12-20T20:15:18;4.80;99.90
47921;DHT22;33686;48.770;9.186;2023-12-20T20:17:43;4.80;99.90
47921;DHT22;33686;48.770;9.186;2023-12-20T20:20:10;4.80;99.90
47921;DHT22;33686;48.770;9.186;2023-12-20T20:22:36;4.80;99.90
47921;DHT22;33686;48.770;9.186;2023-12-20T20:25:02;4.80;99.90
47921;DHT22;33686;48.770;9.186;2023-12-20T20:27:29;4.80;99.90
47921;DHT22;33686;48.770;9.186;2023-12-20T20:29:54;4.80;99.90
47921;DHT22;33686;48.770;9.186;2023-12-20T20:32:20;4.80;99.90
47921;DHT22;33686;48.770;9.186;2023-12-20T20:34:46;4.80;99.90
47921;DHT22;33686;48.770;9.186;2023-12-20T20:37:11;4.80;99.90
47921;DHT22;33686;48.770;9.186;2023-12-20T20:39:37;4.80;99.90
47921;DHT22;33686;48.770;9.186;2023-12-20T20:42:03;4.80;99.90
47921;DHT22;33686;48.770;9.186;2023-12-20T20:44:28;4.90;99.90
47921;DHT22;33686;48.770;9.186;2023-12-20T20:46:54;4.90;99.90
47921;DHT22;33686;48.770;9.186;2023-12-20T20:49:21;4.90;99.90
47921;DHT22;33686;48.770;9.186;2023-12-20T20:51:46;4.90;99.90
47921;DHT22;33686;48.770;9.186;2023-12-20T20:54:12;4.90;99.90
47921;DHT22;33686;48.770;9.186;2023-12-20T20:56:37;4.90;99.90
47921;DHT22;33686;48.770;9.186;2023-12-20T20:59:03;5.00;99.90
47921;DHT22;33686;48.770;9.186;2023-12-20T21:01:29;5.00;99.90
47921;DHT22;33686;48.770;9.186;2023-12-20T21:04:00;5.00;99.90
47921;DHT22;33686;48.770;9.186;2023-12-20T21:06:26;5.10;99.90
47921;DHT22;33686;48.770;9.186;2023-12-20T21:08:58;5.00;99.90
47921;DHT22;33686;48.770;9.186;2023-12-20T21:11:23;5.10;99.90
47921;DHT22;33686;48.770;9.186;2023-12-20T21:13:49;5.00;99.90
47921;DHT22;33686;48.770;9.186;2023-12-20T21:16:15;5.10;99.90
47921;DHT22;33686;48.770;9.186;2023-12-20T21:18:41;5.10;99.90
47921;DHT22;33686;48.770;9.186;2023-12-20T21:21:09;5.10;99.90
47921;DHT22;33686;48.770;9.186;2023-12-20T21:23:34;5.10;99.90
47921;DHT22;33686;48.770;9.186;2023-12-20T21:26:00;5.10;99.90
47921;DHT22;33686;48.770;9.186;2023-12-20T21:28:30;5.10;99.90
47921;DHT22;33686;48.770;9.186;2023-12-20T21:30:56;5.10;99.90
47921;DHT22;33686;48.770;9.186;2023-12-20T21:33:21;5.10;99.90
47921;DHT22;33686;48.770;9.186;2023-12-20T21:35:47;5.10;99.90
47921;DHT22;33686;48.770;9.186;2023-12-20T21:38:12;5.10;99.90
47921;DHT22;33686;48.770;9.186;2023-12-20T21:40:38;5.10;99.90
47921;DHT22;33686;48.770;9.186;2023-12-20T21:43:03;5.10;99.90
47921;DHT22;33686;48.770;9.186;2023-12-20T21:45:29;5.10;99.90
47921;DHT22;33686;48.770;9.186;2023-12-20T21:47:54;5.10;99.90
47921;DHT22;33686;48.770;9.186;2023-12-20T21:50:20;5.10;99.90
47921;DHT22;33686;48.770;9.186;2023-12-20T21:52:47;5.10;99.90
47921;DHT22;33686;48.770;9.186;2023-12-20T21:55:13;5.00;99.90
47921;DHT22;33686;48.770;9.186;2023-12-20T21:57:38;5.10;99.90